Time;durP1;ratioP1;P1;durP2;ratioP2;P2;SDS_P1;SDS_P2;PMS_P1;PMS_P2;Temp;Humidity;BMP_temperature;BMP_pressure;BME280_temperature;BME280_humidity;BME280_pressure;Samples;Min_cycle;Max_cycle;Signal;HPM_P1;HPM_P2
2021/06/06 04:10:46;;;;;;;0.30;0.30;;;18.50;99.90;;;;;;5791619;23;20272;-75
2021/06/06 04:13:13;;;;;;;0.30;0.30;;;18.90;99.90;;;;;;4957319;29;20190;-76
2021/06/06 04:15:41;;;;;;;0.30;0.30;;;19.00;99.90;;;;;;4956841;29;20209;-76
2021/06/06 04:18:10;;;;;;;0.22;0.22;;;19.00;99.90;;;;;;4956925;29;20229;-76
2021/06/06 04:20:38;;;;;;;0.30;0.30;;;19.10;99.90;;;;;;4956764;29;20225;-76
2021/06/06 04:23:06;;;;;;;0.30;0.30;;;19.10;99.90;;;;;;4957177;29;20201;-76
2021/06/06 04:25:34;;;;;;;0.30;0.30;;;19.30;99.90;;;;;;4956547;29;20209;-75
2021/06/06 04:28:03;;;;;;;0.40;0.40;;;19.40;99.90;;;;;;4956934;29;20217;-75
2021/06/06 04:30:30;;;;;;;0.20;0.20;;;19.40;99.90;;;;;;4953648;29;20201;-75
2021/06/06 04:32:58;;;;;;;0.30;0.30;;;19.60;99.90;;;;;;4954396;29;20710;-75
2021/06/06 04:35:25;;;;;;;0.30;0.30;;;19.70;99.90;;;;;;4956115;29;20260;-75
2021/06/06 04:37:53;;;;;;;0.20;0.20;;;19.80;99.90;;;;;;4956126;29;20287;-75
2021/06/06 04:40:20;;;;;;;0.20;0.20;;;19.90;99.90;;;;;;4956337;29;20205;-75
2021/06/06 04:42:47;;;;;;;0.25;0.25;;;19.90;99.90;;;;;;4956233;29;20208;-75
2021/06/06 04:45:17;;;;;;;0.35;0.35;;;19.90;99.90;;;;;;4956023;29;20205;-74
2021/06/06 04:47:44;;;;;;;0.30;0.30;;;20.70;99.90;;;;;;4956048;29;20221;-75
2021/06/06 04:50:14;;;;;;;0.30;0.30;;;20.00;99.90;;;;;;4955874;29;20251;-76
2021/06/06 04:52:42;;;;;;;0.30;0.30;;;20.20;99.90;;;;;;4956368;29;20213;-75
2021/06/06 04:55:13;;;;;;;0.30;0.30;;;20.10;99.90;;;;;;4956019;29;20361;-75
2021/06/06 04:57:41;;;;;;;0.30;0.30;;;20.10;99.90;;;;;;4955862;29;20228;-76
2021/06/06 05:00:12;;;;;;;0.30;0.30;;;20.20;99.90;;;;;;4955980;29;20617;-76
2021/06/06 05:02:41;;;;;;;0.40;0.40;;;20.10;99.90;;;;;;4955738;29;20206;-76
2021/06/06 05:05:10;;;;;;;0.30;0.30;;;20.40;99.90;;;;;;4956587;29;20209;-78
2021/06/06 05:07:37;;;;;;;0.20;0.20;;;20.40;99.90;;;;;;4955947;29;20272;-75
2021/06/06 05:10:07;;;;;;;0.20;0.20;;;20.40;99.90;;;;;;4956160;29;20232;-76
2021/06/06 05:12:34;;;;;;;0.25;0.25;;;20.50;99.90;;;;;;4955365;29;20260;-75
2021/06/06 05:15:03;;;;;;;0.22;0.22;;;20.70;99.90;;;;;;4955528;29;20405;-76
2021/06/06 05:17:30;;;;;;;0.28;0.28;;;20.70;99.90;;;;;;4955160;29;20209;-75
2021/06/06 05:19:59;;;;;;;0.20;0.20;;;20.70;99.90;;;;;;4954805;28;20205;-75
2021/06/06 05:22:26;;;;;;;0.20;0.20;;;20.70;99.90;;;;;;4955502;29;20228;-77
2021/06/06 05:24:53;;;;;;;0.30;0.30;;;20.60;99.90;;;;;;4955917;29;20205;-77
2021/06/06 05:27:21;;;;;;;0.30;0.30;;;20.50;99.90;;;;;;4955422;29;20206;-77
2021/06/06 05:29:48;;;;;;;0.20;0.20;;;20.60;99.90;;;;;;4955234;29;20198;-77
2021/06/06 05:32:15;;;;;;;0.20;0.20;;;20.80;99.90;;;;;;4955586;29;20577;-77
2021/06/06 05:34:43;;;;;;;0.30;0.30;;;20.80;99.90;;;;;;4955800;29;20240;-77
2021/06/06 05:37:13;;;;;;;0.20;0.20;;;20.80;99.90;;;;;;4956294;29;20213;-77
2021/06/06 05:39:41;;;;;;;0.20;0.20;;;20.70;99.90;;;;;;4958076;29;20706;-78
2021/06/06 05:42:10;;;;;;;0.20;0.20;;;20.80;99.90;;;;;;4956504;29;20277;-76
2021/06/06 05:44:37;;;;;;;0.20;0.20;;;20.70;99.90;;;;;;4955605;29;20260;-78
2021/06/06 05:47:06;;;;;;;0.30;0.30;;;20.70;99.90;;;;;;4956083;29;20201;-77
2021/06/06 05:49:34;;;;;;;0.30;0.30;;;20.80;99.90;;;;;;4954947;29;20757;-78
2021/06/06 05:52:01;;;;;;;0.20;0.20;;;20.70;99.90;;;;;;4955071;29;20288;-78
2021/06/06 05:54:30;;;;;;;0.28;0.28;;;20.80;99.90;;;;;;4955306;29;20663;-78
2021/06/06 05:56:57;;;;;;;0.20;0.20;;;20.90;99.90;;;;;;4957106;29;20201;-78
2021/06/06 05:59:25;;;;;;;0.30;0.30;;;20.80;99.90;;;;;;4955245;29;20709;-78
2021/06/06 06:01:53;;;;;;;0.20;0.20;;;20.80;99.90;;;;;;4958423;29;20361;-78
2021/06/06 06:04:20;;;;;;;0.20;0.20;;;21.00;99.90;;;;;;4960205;29;20209;-80
2021/06/06 06:06:48;;;;;;;0.20;0.20;;;21.00;99.90;;;;;;4962120;28;20264;-79
2021/06/06 06:09:15;;;;;;;0.20;0.20;;;21.20;99.90;;;;;;4963191;29;20197;-79
2021/06/06 06:11:44;;;;;;;0.20;0.20;;;21.30;99.90;;;;;;4960571;29;20646;-81
2021/06/06 06:14:11;;;;;;;0.30;0.30;;;21.30;99.90;;;;;;4960592;29;20237;-77
2021/06/06 06:16:39;;;;;;;0.20;0.20;;;21.30;99.90;;;;;;4954247;29;20205;-77
2021/06/06 06:19:08;;;;;;;0.20;0.20;;;21.60;99.90;;;;;;4955403;29;20614;-78
2021/06/06 06:21:36;;;;;;;0.20;0.20;;;21.60;99.90;;;;;;4956653;29;20733;-79
2021/06/06 06:24:05;;;;;;;0.20;0.20;;;21.40;99.90;;;;;;4954896;29;20260;-76
2021/06/06 06:26:33;;;;;;;0.20;0.20;;;21.50;99.90;;;;;;4954154;29;20284;-76
2021/06/06 06:29:03;;;;;;;0.20;0.20;;;21.50;99.90;;;;;;4954325;29;20212;-75
2021/06/06 06:31:30;;;;;;;0.20;0.20;;;21.60;99.90;;;;;;4955699;28;20605;-76
2021/06/06 06:33:59;;;;;;;0.20;0.20;;;21.80;99.90;;;;;;4954067;29;20245;-75
2021/06/06 06:36:27;;;;;;;0.20;0.20;;;21.80;99.90;;;;;;4953636;29;20205;-75
2021/06/06 06:38:54;;;;;;;0.20;0.20;;;21.70;99.90;;;;;;4954309;29;20698;-76
2021/06/06 06:41:24;;;;;;;0.20;0.20;;;21.60;99.90;;;;;;4953985;29;20283;-77
2021/06/06 06:43:53;;;;;;;0.20;0.20;;;21.30;99.90;;;;;;4954718;29;20194;-76
2021/06/06 06:46:22;;;;;;;0.20;0.20;;;21.20;99.90;;;;;;4960665;29;20209;-78
2021/06/06 06:48:50;;;;;;;0.30;0.30;;;21.30;99.90;;;;;;4954476;29;20256;-76
2021/06/06 06:51:18;;;;;;;0.20;0.20;;;21.30;99.90;;;;;;4944876;29;20225;-77
2021/06/06 06:53:46;;;;;;;0.20;0.20;;;21.40;99.90;;;;;;4945335;29;20197;-77
2021/06/06 06:56:14;;;;;;;0.20;0.20;;;21.40;99.90;;;;;;4942361;29;20202;-76
2021/06/06 06:58:42;;;;;;;0.20;0.20;;;21.40;99.90;;;;;;4943524;29;20228;-77
2021/06/06 07:01:09;;;;;;;0.20;0.20;;;21.40;99.90;;;;;;4942666;29;20222;-76
2021/06/06 07:03:38;;;;;;;0.20;0.20;;;21.50;99.90;;;;;;4942771;29;20226;-77
2021/06/06 07:06:07;;;;;;;0.30;0.30;;;21.60;99.90;;;;;;4942753;29;20638;-77
2021/06/06 07:08:39;;;;;;;0.20;0.20;;;21.70;99.90;;;;;;4943392;29;20195;-76
2021/06/06 07:11:10;;;;;;;0.30;0.30;;;21.80;99.90;;;;;;4942743;29;20711;-76
2021/06/06 07:13:38;;;;;;;0.20;0.20;;;21.80;99.90;;;;;;4943917;29;20244;-76
2021/06/06 07:16:07;;;;;;;0.20;0.20;;;21.80;99.90;;;;;;4944171;29;20206;-77
2021/06/06 07:18:34;;;;;;;0.20;0.20;;;21.90;99.90;;;;;;4945313;29;20683;-77
2021/06/06 07:21:08;;;;;;;0.20;0.20;;;22.00;99.90;;;;;;4944589;29;20221;-77
2021/06/06 07:23:35;;;;;;;0.30;0.30;;;21.60;99.90;;;;;;4945957;28;20198;-77
2021/06/06 07:26:09;;;;;;;0.20;0.20;;;21.50;99.90;;;;;;4943038;29;20209;-77
2021/06/06 07:28:37;;;;;;;0.20;0.20;;;21.50;99.90;;;;;;4939660;29;20259;-77
2021/06/06 07:31:06;;;;;;;0.20;0.20;;;21.40;99.90;;;;;;4944636;29;20225;-77
2021/06/06 07:33:36;;;;;;;0.20;0.20;;;21.40;99.90;;;;;;4944509;29;20280;-77
2021/06/06 07:36:06;;;;;;;0.30;0.30;;;21.50;99.90;;;;;;4943264;29;20206;-77
2021/06/06 07:38:34;;;;;;;0.20;0.20;;;21.40;99.90;;;;;;4942896;29;20261;-76
2021/06/06 07:41:03;;;;;;;0.20;0.20;;;21.50;99.90;;;;;;4934257;29;20272;-76
2021/06/06 07:43:32;;;;;;;0.20;0.20;;;21.40;99.90;;;;;;4939441;29;20198;-76
2021/06/06 07:46:00;;;;;;;0.20;0.20;;;21.60;99.90;;;;;;4955268;29;20204;-76
2021/06/06 07:48:27;;;;;;;0.20;0.20;;;21.70;99.90;;;;;;4957311;29;20209;-76
2021/06/06 07:50:55;;;;;;;0.20;0.20;;;21.90;99.90;;;;;;4954747;29;20222;-77
2021/06/06 07:53:24;;;;;;;0.20;0.20;;;22.00;99.90;;;;;;4953180;29;20213;-77
2021/06/06 07:55:54;;;;;;;0.20;0.20;;;22.00;99.90;;;;;;4957089;29;20682;-76
2021/06/06 07:58:24;;;;;;;0.20;0.20;;;21.80;99.90;;;;;;4958462;29;20209;-78
2021/06/06 08:00:53;;;;;;;0.20;0.20;;;21.80;99.90;;;;;;4963027;29;20226;-77
2021/06/06 08:03:20;;;;;;;0.20;0.20;;;21.90;99.90;;;;;;4960853;29;20252;-78
2021/06/06 08:05:48;;;;;;;0.20;0.20;;;21.80;99.90;;;;;;4960614;29;20205;-79
2021/06/06 08:08:18;;;;;;;0.20;0.20;;;21.90;99.90;;;;;;4960507;29;20256;-77
2021/06/06 08:10:49;;;;;;;0.20;0.20;;;21.90;99.90;;;;;;4961374;29;20308;-79
2021/06/06 08:13:17;;;;;;;0.20;0.20;;;22.00;99.90;;;;;;4964035;29;20213;-82
2021/06/06 08:15:45;;;;;;;0.20;0.20;;;22.60;99.90;;;;;;4965373;29;20205;-79
2021/06/06 08:18:16;;;;;;;0.20;0.20;;;22.10;99.90;;;;;;4962476;29;20670;-78
2021/06/06 08:20:46;;;;;;;0.20;0.20;;;22.20;99.90;;;;;;4963697;29;20261;-79
2021/06/06 08:23:14;;;;;;;0.20;0.20;;;22.40;99.90;;;;;;4963626;29;20582;-80
2021/06/06 08:25:42;;;;;;;0.20;0.20;;;22.70;99.90;;;;;;4967159;29;20206;-81
2021/06/06 08:28:13;;;;;;;0.20;0.20;;;22.60;99.90;;;;;;4965124;29;20206;-79
2021/06/06 08:30:43;;;;;;;0.20;0.20;;;22.50;99.90;;;;;;4966060;29;20710;-80
2021/06/06 08:33:12;;;;;;;0.20;0.20;;;22.80;99.90;;;;;;4959672;29;20721;-76
2021/06/06 08:35:52;;;;;;;0.20;0.20;;;22.10;99.90;;;;;;4956888;29;20205;-77
2021/06/06 08:38:19;;;;;;;0.20;0.20;;;22.00;99.90;;;;;;4955860;29;20254;-75
2021/06/06 08:40:53;;;;;;;0.20;0.20;;;22.20;99.90;;;;;;4950115;29;20754;-75
2021/06/06 08:43:26;;;;;;;0.20;0.20;;;22.50;99.90;;;;;;4957347;28;20264;-76
2021/06/06 08:45:56;;;;;;;0.20;0.20;;;;;;;;;;4956305;29;20209;-76
2021/06/06 08:48:25;;;;;;;0.20;0.20;;;22.80;99.90;;;;;;4956241;29;20205;-76
2021/06/06 08:51:03;;;;;;;0.20;0.20;;;22.50;99.90;;;;;;4956004;29;20269;-76
2021/06/06 08:53:36;;;;;;;0.20;0.20;;;23.60;99.90;;;;;;4956013;28;20201;-76
2021/06/06 08:56:17;;;;;;;0.20;0.20;;;22.60;99.90;;;;;;4955910;29;20236;-76
2021/06/06 08:58:49;;;;;;;0.20;0.20;;;22.50;99.90;;;;;;4956053;29;20205;-76
2021/06/06 09:01:24;;;;;;;0.20;0.20;;;22.70;99.90;;;;;;4955374;29;20288;-76
2021/06/06 09:03:55;;;;;;;0.20;0.20;;;22.50;99.90;;;;;;4945406;29;20200;-75
2021/06/06 09:06:34;;;;;;;0.20;0.20;;;22.70;99.90;;;;;;4955583;29;20576;-75
2021/06/06 09:09:03;;;;;;;0.20;0.20;;;23.00;99.90;;;;;;4950110;29;20663;-76
2021/06/06 09:11:32;;;;;;;0.20;0.20;;;22.90;99.90;;;;;;4936337;29;20234;-75
2021/06/06 09:14:02;;;;;;;0.20;0.20;;;22.80;99.90;;;;;;4936410;29;20218;-76
2021/06/06 09:16:34;;;;;;;0.10;0.10;;;22.90;99.90;;;;;;4936201;29;20206;-76
2021/06/06 09:19:07;;;;;;;0.20;0.20;;;23.00;99.90;;;;;;4936289;29;20285;-75
2021/06/06 09:21:35;;;;;;;0.20;0.20;;;23.20;99.90;;;;;;4936447;29;20264;-76
2021/06/06 09:24:08;;;;;;;0.20;0.20;;;22.90;99.90;;;;;;4935209;29;20213;-75
2021/06/06 09:26:36;;;;;;;0.20;0.20;;;23.30;99.90;;;;;;4935219;29;20582;-75
2021/06/06 09:29:19;;;;;;;0.10;0.10;;;23.30;99.90;;;;;;4934850;29;20269;-75
2021/06/06 09:31:47;;;;;;;0.10;0.10;;;23.40;99.90;;;;;;4934946;29;20225;-77
2021/06/06 09:34:20;;;;;;;0.20;0.20;;;23.50;99.90;;;;;;4936512;29;20206;-76
2021/06/06 09:37:03;;;;;;;0.20;0.20;;;23.50;99.90;;;;;;4938097;29;20273;-80
2021/06/06 09:39:38;;;;;;;0.20;0.20;;;23.50;99.90;;;;;;4945222;29;20819;-80
2021/06/06 09:42:19;;;;;;;0.20;0.20;;;23.60;99.90;;;;;;4944697;29;20724;-79
2021/06/06 09:45:03;;;;;;;0.20;0.20;;;23.80;99.90;;;;;;4946091;29;20206;-79
2021/06/06 09:47:30;;;;;;;0.20;0.20;;;24.20;99.90;;;;;;4945236;29;20237;-80
2021/06/06 09:50:09;;;;;;;0.20;0.20;;;24.10;99.90;;;;;;4942457;29;20202;-81
2021/06/06 09:52:46;;;;;;;0.10;0.10;;;24.30;99.90;;;;;;4943182;29;20832;-78
2021/06/06 09:55:20;;;;;;;0.20;0.20;;;24.40;99.90;;;;;;4940233;29;20793;-77
2021/06/06 09:57:49;;;;;;;0.10;0.10;;;24.50;99.90;;;;;;4938558;29;20257;-72
2021/06/06 10:00:27;;;;;;;0.20;0.20;;;;;;;;;;4936631;29;20214;-72
2021/06/06 10:02:58;;;;;;;0.20;0.20;;;24.90;98.70;;;;;;4937450;29;20265;-75
2021/06/06 10:05:30;;;;;;;0.20;0.20;;;25.20;98.30;;;;;;4946382;28;20597;-76
2021/06/06 10:08:00;;;;;;;0.20;0.20;;;25.40;98.40;;;;;;4944151;29;20257;-76
2021/06/06 10:10:30;;;;;;;0.10;0.10;;;;;;;;;;4936599;29;20186;-76
2021/06/06 10:13:01;;;;;;;0.10;0.10;;;;;;;;;;4944016;29;20726;-76
2021/06/06 10:15:40;;;;;;;0.10;0.10;;;26.30;98.60;;;;;;4945417;29;20260;-75
2021/06/06 10:18:13;;;;;;;0.10;0.10;;;26.40;87.00;;;;;;4944042;29;20201;-77
2021/06/06 10:20:43;;;;;;;0.20;0.20;;;26.70;83.90;;;;;;4945420;29;20218;-76
2021/06/06 10:23:20;;;;;;;0.15;0.15;;;26.40;76.00;;;;;;4954817;29;20556;-77
2021/06/06 10:25:52;;;;;;;0.10;0.10;;;26.30;75.20;;;;;;4976366;23;20292;-77
2021/06/06 10:28:23;;;;;;;0.20;0.20;;;25.80;85.70;;;;;;4946085;29;20564;-77
2021/06/06 10:31:01;;;;;;;0.20;0.20;;;25.90;83.00;;;;;;4949068;29;20198;-79
2021/06/06 10:33:33;;;;;;;0.20;0.20;;;25.90;76.40;;;;;;4945538;29;20275;-75
2021/06/06 10:36:02;;;;;;;0.10;0.10;;;25.50;77.00;;;;;;4947311;29;20289;-77
2021/06/06 10:38:32;;;;;;;0.20;0.20;;;25.60;81.40;;;;;;4945344;29;20202;-81
2021/06/06 10:41:09;;;;;;;0.17;0.17;;;25.30;83.60;;;;;;4948659;29;20221;-77
2021/06/06 10:43:44;;;;;;;0.20;0.20;;;25.50;87.30;;;;;;4944375;28;20299;-76
2021/06/06 10:46:19;;;;;;;0.20;0.20;;;25.50;80.80;;;;;;4937150;29;20249;-76
2021/06/06 10:48:52;;;;;;;0.10;0.10;;;25.40;80.00;;;;;;4940058;29;20201;-76
2021/06/06 10:51:33;;;;;;;0.20;0.20;;;25.40;83.10;;;;;;4943119;29;20190;-76
2021/06/06 10:54:05;;;;;;;0.10;0.10;;;25.60;85.20;;;;;;4949681;29;20208;-77
2021/06/06 10:56:41;;;;;;;0.10;0.10;;;26.00;89.80;;;;;;4935307;29;20249;-76
2021/06/06 10:59:10;;;;;;;0.20;0.20;;;26.00;80.00;;;;;;4935227;29;20208;-76
2021/06/06 11:01:52;;;;;;;0.10;0.10;;;25.80;78.60;;;;;;4945117;29;20221;-76
2021/06/06 11:04:23;;;;;;;0.20;0.20;;;25.90;80.20;;;;;;4937398;29;20707;-75
2021/06/06 11:07:07;;;;;;;0.10;0.10;;;25.90;78.00;;;;;;4954181;29;20189;-75
2021/06/06 11:09:36;;;;;;;0.20;0.20;;;25.90;75.80;;;;;;4954353;29;20611;-75
2021/06/06 11:12:09;;;;;;;0.10;0.10;;;25.90;75.70;;;;;;4952593;29;20205;-75
2021/06/06 11:14:41;;;;;;;0.10;0.10;;;25.90;74.50;;;;;;4934917;29;20237;-75
2021/06/06 11:17:15;;;;;;;0.10;0.10;;;26.00;73.00;;;;;;4938567;29;20201;-76
2021/06/06 11:19:42;;;;;;;0.10;0.10;;;26.10;71.00;;;;;;4953723;29;20225;-72
2021/06/06 11:22:28;;;;;;;0.20;0.20;;;26.10;70.60;;;;;;4941098;29;20202;-73
2021/06/06 11:24:57;;;;;;;0.10;0.10;;;26.00;70.00;;;;;;4938462;29;20277;-72
2021/06/06 11:27:33;;;;;;;0.10;0.10;;;25.70;69.10;;;;;;4938341;29;20578;-73
2021/06/06 11:30:08;;;;;;;0.20;0.20;;;25.90;71.20;;;;;;4938542;29;20216;-72
2021/06/06 11:32:56;;;;;;;0.20;0.20;;;25.90;64.80;;;;;;4938463;29;20233;-72
2021/06/06 11:35:31;;;;;;;0.10;0.10;;;26.10;68.40;;;;;;4938235;29;20284;-73
2021/06/06 11:38:00;;;;;;;0.20;0.20;;;26.30;65.00;;;;;;4938368;29;20236;-72
2021/06/06 11:40:38;;;;;;;0.10;0.10;;;26.50;65.20;;;;;;4952538;29;20575;-73
2021/06/06 11:43:25;;;;;;;0.10;0.10;;;26.80;66.40;;;;;;4957740;29;20204;-74
2021/06/06 11:45:55;;;;;;;0.17;0.17;;;26.70;65.50;;;;;;4957363;29;20280;-70
2021/06/06 11:48:31;;;;;;;0.13;0.13;;;26.60;65.60;;;;;;4957530;29;20288;-68
2021/06/06 11:51:00;;;;;;;0.10;0.10;;;26.40;65.90;;;;;;4946615;29;20227;-70
2021/06/06 11:53:34;;;;;;;0.10;0.10;;;26.40;64.40;;;;;;4946956;29;20778;-68
2021/06/06 11:56:14;;;;;;;0.20;0.20;;;26.40;62.30;;;;;;4951339;29;20271;-69
2021/06/06 11:58:45;;;;;;;0.20;0.20;;;26.70;63.00;;;;;;4955575;29;20201;-69
2021/06/06 12:01:16;;;;;;;0.10;0.10;;;26.90;67.60;;;;;;4956817;29;20221;-78
2021/06/06 12:03:48;;;;;;;0.17;0.17;;;27.00;61.00;;;;;;4960082;29;20212;-76
2021/06/06 12:06:26;;;;;;;0.20;0.20;;;27.30;78.50;;;;;;4959083;29;20614;-79
2021/06/06 12:08:56;;;;;;;0.10;0.10;;;27.40;90.40;;;;;;4958263;29;20245;-77
2021/06/06 12:11:28;;;;;;;0.10;0.10;;;27.50;85.70;;;;;;4959007;29;20205;-77
2021/06/06 12:14:08;;;;;;;0.10;0.10;;;28.10;74.70;;;;;;4958888;29;20247;-77
2021/06/06 12:16:43;;;;;;;0.10;0.10;;;28.20;58.00;;;;;;4957696;29;20732;-77
2021/06/06 12:19:15;;;;;;;0.10;0.10;;;28.20;57.80;;;;;;4957350;29;20215;-77
2021/06/06 12:21:44;;;;;;;0.10;0.10;;;28.00;57.90;;;;;;4963561;29;20226;-77
2021/06/06 12:24:18;;;;;;;0.10;0.10;;;28.00;57.70;;;;;;4978282;29;20225;-76
2021/06/06 12:26:49;;;;;;;0.10;0.10;;;27.90;58.30;;;;;;4977925;29;20209;-75
2021/06/06 12:29:25;;;;;;;0.10;0.10;;;;;;;;;;4979814;28;20220;-75
2021/06/06 12:31:52;;;;;;;0.10;0.10;;;28.70;61.50;;;;;;4977252;29;20205;-77
2021/06/06 12:34:24;;;;;;;0.10;0.10;;;29.00;60.80;;;;;;4961059;29;20277;-77
2021/06/06 12:36:57;;;;;;;0.10;0.10;;;29.50;56.40;;;;;;4960493;29;20744;-77
2021/06/06 12:39:25;;;;;;;0.10;0.10;;;29.60;66.80;;;;;;4960344;29;20267;-78
2021/06/06 12:41:55;;;;;;;0.10;0.10;;;30.00;55.00;;;;;;4961587;29;20276;-78
2021/06/06 12:44:27;;;;;;;0.10;0.10;;;30.30;49.70;;;;;;4962051;29;20248;-78
2021/06/06 12:46:57;;;;;;;0.10;0.10;;;30.00;51.00;;;;;;4960802;29;20209;-77
2021/06/06 12:49:35;;;;;;;0.10;0.10;;;29.90;51.30;;;;;;4958848;29;20238;-77
2021/06/06 12:52:17;;;;;;;0.10;0.10;;;29.90;49.50;;;;;;4959098;29;20554;-77
2021/06/06 12:54:45;;;;;;;0.10;0.10;;;30.20;49.50;;;;;;4959244;29;20710;-79
2021/06/06 12:57:19;;;;;;;0.10;0.10;;;30.40;48.60;;;;;;4961138;29;20238;-78
2021/06/06 12:59:48;;;;;;;0.10;0.10;;;30.60;49.00;;;;;;4965847;29;20626;-76
2021/06/06 13:02:18;;;;;;;0.10;0.10;;;31.20;48.60;;;;;;4973579;29;20261;-76
2021/06/06 13:05:00;;;;;;;0.10;0.10;;;31.70;47.40;;;;;;4972900;29;20237;-76
2021/06/06 13:07:29;;;;;;;0.10;0.10;;;32.40;45.30;;;;;;4968159;29;20255;-77
2021/06/06 13:09:57;;;;;;;0.10;0.10;;;33.40;44.50;;;;;;4962239;29;20252;-79
2021/06/06 13:12:33;;;;;;;0.10;0.10;;;34.10;43.50;;;;;;4960396;29;20201;-77
2021/06/06 13:15:07;;;;;;;0.00;0.00;;;33.70;42.50;;;;;;4958292;29;20235;-77
2021/06/06 13:17:40;;;;;;;0.10;0.10;;;34.70;43.90;;;;;;4961696;29;20205;-78
2021/06/06 13:20:24;;;;;;;0.10;0.10;;;35.30;41.60;;;;;;4961953;29;20232;-78
2021/06/06 13:23:02;;;;;;;0.10;0.10;;;36.10;41.70;;;;;;4962034;29;20209;-77
2021/06/06 13:25:34;;;;;;;0.00;0.00;;;36.70;39.00;;;;;;4961589;29;20737;-78
2021/06/06 13:28:13;;;;;;;0.00;0.00;;;36.50;40.40;;;;;;4961703;29;20211;-78
2021/06/06 13:30:44;;;;;;;0.00;0.00;;;36.00;39.80;;;;;;4961333;29;20201;-77
2021/06/06 13:33:15;;;;;;;0.00;0.00;;;33.70;39.70;;;;;;4960148;29;20244;-76
2021/06/06 13:35:46;;;;;;;0.10;0.10;;;33.40;42.20;;;;;;4958941;29;20236;-77
2021/06/06 13:38:13;;;;;;;0.10;0.10;;;34.00;42.40;;;;;;4959669;29;20316;-77
2021/06/06 13:40:50;;;;;;;0.10;0.10;;;34.40;39.10;;;;;;4958477;28;20301;-76
2021/06/06 13:43:19;;;;;;;0.10;0.10;;;35.00;39.70;;;;;;4960723;29;20212;-78
2021/06/06 13:45:46;;;;;;;0.10;0.10;;;35.10;39.30;;;;;;4959290;29;20276;-78
2021/06/06 13:48:17;;;;;;;0.00;0.00;;;34.50;40.40;;;;;;4960136;29;20204;-78
2021/06/06 13:50:47;;;;;;;0.10;0.10;;;33.80;40.00;;;;;;4959068;29;20224;-77
2021/06/06 13:53:17;;;;;;;0.00;0.00;;;33.20;41.50;;;;;;4959276;29;20208;-78
2021/06/06 13:55:45;;;;;;;0.10;0.10;;;32.40;43.00;;;;;;4959302;29;20275;-78
2021/06/06 13:58:13;;;;;;;0.10;0.10;;;31.90;43.20;;;;;;4958836;29;20209;-78
2021/06/06 14:00:40;;;;;;;0.10;0.10;;;31.50;44.30;;;;;;4958678;29;20216;-77
2021/06/06 14:03:11;;;;;;;0.10;0.10;;;31.00;43.30;;;;;;4958789;29;20627;-77
2021/06/06 14:05:39;;;;;;;0.10;0.10;;;30.60;44.40;;;;;;4958991;29;20237;-77
2021/06/06 14:08:09;;;;;;;0.10;0.10;;;30.30;44.30;;;;;;4959022;29;20205;-78
2021/06/06 14:10:40;;;;;;;0.10;0.10;;;30.20;44.40;;;;;;4959017;29;20662;-77
2021/06/06 14:13:10;;;;;;;0.10;0.10;;;30.20;45.30;;;;;;4958293;29;20268;-79
2021/06/06 14:15:38;;;;;;;0.10;0.10;;;30.30;45.00;;;;;;4955009;29;20288;-77
2021/06/06 14:18:07;;;;;;;0.10;0.10;;;30.00;44.70;;;;;;4955091;29;20702;-77
2021/06/06 14:20:35;;;;;;;0.10;0.10;;;29.90;45.70;;;;;;4958290;29;20233;-79
2021/06/06 14:23:04;;;;;;;0.10;0.10;;;29.60;47.00;;;;;;4959267;29;20205;-77
2021/06/06 14:25:36;;;;;;;0.10;0.10;;;29.10;47.40;;;;;;4958556;29;20237;-77
2021/06/06 14:28:06;;;;;;;0.10;0.10;;;28.70;46.60;;;;;;4958273;29;20209;-77
2021/06/06 14:30:34;;;;;;;0.10;0.10;;;28.50;46.60;;;;;;4943065;29;20204;-78
2021/06/06 14:33:03;;;;;;;0.10;0.10;;;28.10;46.70;;;;;;4958288;29;20311;-78
2021/06/06 14:35:31;;;;;;;0.10;0.10;;;27.90;46.30;;;;;;4957711;29;20678;-77
2021/06/06 14:37:59;;;;;;;0.10;0.10;;;28.00;48.30;;;;;;4958409;29;20209;-76
2021/06/06 14:40:29;;;;;;;0.10;0.10;;;28.20;47.00;;;;;;4958397;29;20280;-78
2021/06/06 14:42:59;;;;;;;0.10;0.10;;;28.20;47.20;;;;;;4958231;29;20249;-76
2021/06/06 14:45:30;;;;;;;0.10;0.10;;;28.30;47.30;;;;;;4959133;29;20225;-76
2021/06/06 14:47:57;;;;;;;0.10;0.10;;;28.40;47.30;;;;;;4958564;29;20205;-76
2021/06/06 14:50:26;;;;;;;0.10;0.10;;;28.20;45.30;;;;;;4957107;29;20209;-76
2021/06/06 14:53:00;;;;;;;0.10;0.10;;;28.20;45.30;;;;;;4956759;29;20208;-76
2021/06/06 14:55:28;;;;;;;0.10;0.10;;;28.00;45.30;;;;;;4955923;29;20276;-75
2021/06/06 14:58:18;;;;;;;0.10;0.10;;;28.00;47.00;;;;;;4956668;29;20205;-77
2021/06/06 15:00:47;;;;;;;0.10;0.10;;;27.80;47.30;;;;;;4961050;29;20276;-77
2021/06/06 15:03:14;;;;;;;0.10;0.10;;;27.80;47.20;;;;;;4955726;29;20205;-77
2021/06/06 15:05:43;;;;;;;0.10;0.10;;;27.30;48.60;;;;;;4955279;29;20260;-77
2021/06/06 15:08:11;;;;;;;0.10;0.10;;;27.40;47.50;;;;;;4955070;29;20622;-77
2021/06/06 15:10:42;;;;;;;0.10;0.10;;;27.60;48.60;;;;;;4955359;29;20316;-77
2021/06/06 15:13:11;;;;;;;0.10;0.10;;;27.50;48.40;;;;;;4955721;29;20228;-75
2021/06/06 15:15:40;;;;;;;0.10;0.10;;;27.60;49.30;;;;;;4954912;29;20638;-78
2021/06/06 15:18:08;;;;;;;0.10;0.10;;;27.70;48.60;;;;;;4955610;29;20208;-77
2021/06/06 15:20:37;;;;;;;0.10;0.10;;;27.80;50.60;;;;;;4955908;29;20201;-77
2021/06/06 15:23:09;;;;;;;0.10;0.10;;;27.90;47.90;;;;;;4956190;29;20281;-77
2021/06/06 15:25:57;;;;;;;0.10;0.10;;;27.80;49.00;;;;;;4955071;29;20254;-77
2021/06/06 15:28:25;;;;;;;0.10;0.10;;;27.50;48.90;;;;;;4957701;29;20201;-78
2021/06/06 15:30:53;;;;;;;0.10;0.10;;;27.60;49.70;;;;;;4957631;29;20205;-78
2021/06/06 15:33:23;;;;;;;0.10;0.10;;;27.50;47.80;;;;;;4959028;29;20202;-77
2021/06/06 15:35:51;;;;;;;0.10;0.10;;;27.60;47.90;;;;;;4957290;29;20225;-78
2021/06/06 15:38:21;;;;;;;0.10;0.10;;;27.70;49.10;;;;;;4954843;29;20228;-78
2021/06/06 15:40:50;;;;;;;0.10;0.10;;;27.60;49.70;;;;;;4953848;29;20209;-78
2021/06/06 15:43:19;;;;;;;0.10;0.10;;;27.60;49.40;;;;;;4953671;29;20269;-77
2021/06/06 15:45:48;;;;;;;0.10;0.10;;;27.60;48.90;;;;;;4953526;29;20276;-77
2021/06/06 15:48:19;;;;;;;0.10;0.10;;;27.30;49.00;;;;;;4953607;29;20201;-77
2021/06/06 15:50:47;;;;;;;0.10;0.10;;;;;;;;;;4953636;29;20369;-77
2021/06/06 15:53:16;;;;;;;0.10;0.10;;;27.40;48.80;;;;;;4954572;29;20284;-77
2021/06/06 15:55:45;;;;;;;0.10;0.10;;;27.50;48.30;;;;;;4955199;29;20277;-77
2021/06/06 15:58:12;;;;;;;0.10;0.10;;;27.40;48.80;;;;;;4958653;29;20261;-77
2021/06/06 16:00:41;;;;;;;0.10;0.10;;;27.50;49.00;;;;;;4957551;29;20622;-78
2021/06/06 16:03:10;;;;;;;0.10;0.10;;;27.50;49.70;;;;;;4957697;28;20277;-78
2021/06/06 16:05:39;;;;;;;0.20;0.20;;;27.60;50.80;;;;;;4960681;29;20557;-78
2021/06/06 16:08:07;;;;;;;0.20;0.20;;;27.90;49.90;;;;;;4961767;29;20260;-77
2021/06/06 16:10:34;;;;;;;0.10;0.10;;;28.50;48.40;;;;;;4962003;29;20240;-78
2021/06/06 16:13:03;;;;;;;0.10;0.10;;;28.80;50.60;;;;;;4966829;29;20269;-78
2021/06/06 16:15:31;;;;;;;0.10;0.10;;;28.90;48.60;;;;;;4963647;29;20229;-77
2021/06/06 16:17:59;;;;;;;0.10;0.10;;;29.00;49.80;;;;;;4963428;29;20828;-78
2021/06/06 16:20:28;;;;;;;0.10;0.10;;;28.80;47.90;;;;;;4964407;29;20201;-77
2021/06/06 16:22:58;;;;;;;0.10;0.10;;;28.50;48.80;;;;;;4962847;29;20284;-77
2021/06/06 16:25:27;;;;;;;0.10;0.10;;;28.50;48.30;;;;;;4962233;29;20637;-77
2021/06/06 16:27:55;;;;;;;0.10;0.10;;;28.70;48.80;;;;;;4959271;29;20213;-77
2021/06/06 16:30:28;;;;;;;0.10;0.10;;;28.80;49.40;;;;;;4960704;29;20205;-77
2021/06/06 16:32:56;;;;;;;0.10;0.10;;;28.90;49.40;;;;;;4960916;29;20280;-77
2021/06/06 16:35:26;;;;;;;0.10;0.10;;;29.00;49.60;;;;;;4960818;29;20221;-77
2021/06/06 16:37:54;;;;;;;0.10;0.10;;;28.90;47.90;;;;;;4961383;29;20209;-79
2021/06/06 16:40:24;;;;;;;0.10;0.10;;;29.10;49.20;;;;;;4962341;29;20216;-79
2021/06/06 16:42:52;;;;;;;0.10;0.10;;;29.30;47.30;;;;;;4961844;29;20279;-78
2021/06/06 16:45:23;;;;;;;0.10;0.10;;;29.60;47.10;;;;;;4962007;29;20253;-78
2021/06/06 16:47:51;;;;;;;0.10;0.10;;;30.10;46.40;;;;;;4961490;29;20212;-77
2021/06/06 16:50:19;;;;;;;0.10;0.10;;;30.30;45.80;;;;;;4961087;29;20205;-76
2021/06/06 16:52:47;;;;;;;0.10;0.10;;;30.30;45.60;;;;;;4960924;29;20205;-78
2021/06/06 16:55:17;;;;;;;0.10;0.10;;;30.30;45.90;;;;;;4960969;29;20786;-76
2021/06/06 16:57:46;;;;;;;0.10;0.10;;;30.10;47.00;;;;;;4961284;29;20202;-76
2021/06/06 17:00:17;;;;;;;0.10;0.10;;;30.20;46.50;;;;;;4960649;29;20209;-77
2021/06/06 17:02:44;;;;;;;0.20;0.20;;;30.40;46.20;;;;;;4961606;29;20264;-78
2021/06/06 17:05:12;;;;;;;0.10;0.10;;;31.10;45.50;;;;;;4961612;29;20224;-78
2021/06/06 17:07:40;;;;;;;0.10;0.10;;;32.40;45.30;;;;;;4962993;29;20209;-78
2021/06/06 17:10:10;;;;;;;0.10;0.10;;;33.30;42.80;;;;;;4962592;29;20478;-77
2021/06/06 17:12:39;;;;;;;0.10;0.10;;;34.50;42.30;;;;;;4961980;29;20236;-78
2021/06/06 17:15:11;;;;;;;0.10;0.10;;;35.10;41.50;;;;;;4959019;28;20228;-76